Terminal Aerodrome Forecast
Issued by NWS Cleveland, OH

Home | Current Version | Previous Version | Graphics & Text | Print | Product List | Glossary On
Versions: 1 2 3 4 5 6 7 8 9 10 11 12 13 14 15 16 17 18 19 20 21 22 23 24
074
FTUS41 KCLE 251724
TAFCLE
TAF
KCLE 251724Z 2518/2624 27011KT P6SM SCT060 BKN120
     FM260000 28006KT P6SM FEW060 SCT250
     FM260900 01005KT P6SM FEW040
     FM261800 02010KT P6SM FEW045=

USA.gov is the U.S. government's official web portal to all federal, state and local government web resources and services.